createdAt,value
2022-07-26T00:01:36.047Z,20.2
2022-07-26T00:06:42.229Z,20.3
2022-07-26T00:11:48.426Z,20.3
2022-07-26T00:16:54.709Z,20.3
2022-07-26T00:22:00.848Z,20.3
2022-07-26T00:27:07.058Z,20.3
2022-07-26T00:32:13.270Z,20.2
2022-07-26T00:37:20.502Z,20.2
2022-07-26T00:42:25.685Z,20.2
2022-07-26T00:47:31.897Z,20.2
2022-07-26T00:52:38.102Z,20.2
2022-07-26T00:57:44.313Z,20.2
2022-07-26T01:02:50.591Z,20.2
2022-07-26T01:07:56.747Z,20.2
2022-07-26T01:13:02.947Z,20.2
2022-07-26T01:18:09.138Z,20.2
2022-07-26T01:23:15.359Z,20.2
2022-07-26T01:28:21.566Z,20.2
2022-07-26T01:33:27.765Z,20.2
2022-07-26T01:38:33.977Z,20.2
2022-07-26T01:43:40.473Z,20.2
2022-07-26T01:48:46.450Z,20.2
2022-07-26T01:53:52.606Z,20.1
2022-07-26T01:58:58.819Z,20.1
2022-07-26T02:04:05.310Z,20.1
2022-07-26T02:09:12.667Z,20.1
2022-07-26T02:14:25.594Z,20.0
2022-07-26T02:19:23.649Z,20.0
2022-07-26T02:24:29.856Z,19.9
2022-07-26T02:29:36.065Z,19.9
2022-07-26T02:34:42.274Z,19.9
2022-07-26T02:39:48.484Z,19.8
2022-07-26T02:44:54.700Z,19.8
2022-07-26T02:50:00.896Z,19.7
2022-07-26T02:55:07.105Z,19.7
2022-07-26T03:00:13.321Z,19.7
2022-07-26T03:05:19.517Z,19.6
2022-07-26T03:10:25.761Z,19.6
2022-07-26T03:15:32.038Z,19.6
2022-07-26T03:20:38.160Z,19.6
2022-07-26T03:25:44.362Z,19.6
2022-07-26T03:30:50.620Z,19.6
2022-07-26T03:35:56.777Z,19.6
2022-07-26T03:41:02.983Z,19.5
2022-07-26T03:46:09.258Z,19.5
2022-07-26T03:51:15.393Z,19.5
2022-07-26T03:56:21.600Z,19.4
2022-07-26T04:01:27.878Z,19.4
2022-07-26T04:06:34.024Z,19.3
2022-07-26T04:11:40.236Z,19.3
2022-07-26T04:16:46.537Z,19.3
2022-07-26T04:21:52.652Z,19.3
2022-07-26T04:26:58.861Z,19.3
2022-07-26T04:32:05.057Z,19.3
2022-07-26T04:37:11.270Z,19.3
2022-07-26T04:42:17.492Z,19.3
2022-07-26T04:47:23.690Z,19.3
2022-07-26T04:52:28.906Z,19.4
2022-07-26T05:02:41.389Z,19.5
2022-07-26T05:07:47.535Z,19.5
2022-07-26T05:12:53.754Z,19.6
2022-07-26T05:17:59.946Z,19.7
2022-07-26T05:23:06.169Z,19.7
2022-07-26T05:28:12.367Z,19.7
2022-07-26T05:33:18.599Z,19.8
2022-07-26T05:38:24.803Z,19.8
2022-07-26T05:43:40.910Z,19.9
2022-07-26T05:48:37.310Z,19.9
2022-07-26T05:53:43.432Z,20.0
2022-07-26T05:58:49.617Z,20.0
2022-07-26T06:03:55.907Z,20.1
2022-07-26T06:09:02.043Z,20.2
2022-07-26T06:14:08.440Z,20.3
2022-07-26T06:19:14.456Z,20.5
2022-07-26T06:24:20.678Z,20.6
2022-07-26T06:29:31.995Z,20.8
2022-07-26T06:34:33.074Z,20.9
2022-07-26T06:39:39.283Z,20.9
2022-07-26T06:44:45.489Z,21.1
2022-07-26T06:49:51.701Z,21.3
2022-07-26T06:54:57.907Z,21.6
2022-07-26T07:00:04.126Z,21.8
2022-07-26T07:05:10.395Z,22.1
2022-07-26T07:10:16.541Z,22.3
2022-07-26T07:15:22.746Z,22.5
2022-07-26T07:20:28.957Z,22.6
2022-07-26T07:25:35.163Z,22.7
2022-07-26T07:30:41.375Z,22.9
2022-07-26T07:35:47.584Z,22.9
2022-07-26T07:40:53.790Z,23.1
2022-07-26T07:46:00.004Z,23.3
2022-07-26T07:51:06.212Z,23.2
2022-07-26T07:56:12.416Z,23.2
2022-07-26T08:06:24.836Z,23.2
2022-07-26T08:11:31.049Z,23.2
2022-07-26T08:16:37.302Z,23.1
2022-07-26T08:21:43.462Z,23.0
2022-07-26T08:26:49.671Z,22.9
2022-07-26T08:31:55.944Z,22.7
2022-07-26T08:37:16.104Z,22.4
2022-07-26T08:42:08.298Z,22.2
2022-07-26T08:47:14.504Z,22.0
2022-07-26T08:52:20.725Z,22.0
2022-07-26T08:57:26.919Z,21.9
2022-07-26T09:02:33.130Z,22.0
2022-07-26T09:07:39.358Z,22.2
2022-07-26T09:12:45.554Z,22.4
2022-07-26T09:17:51.756Z,22.7
2022-07-26T09:22:57.975Z,22.9
2022-07-26T09:28:04.176Z,23.0
2022-07-26T09:33:10.388Z,23.1
2022-07-26T09:38:16.588Z,23.2
2022-07-26T09:43:24.382Z,23.2
2022-07-26T09:48:36.534Z,23.2
2022-07-26T09:53:35.258Z,23.2
2022-07-26T10:03:47.641Z,23.3
2022-07-26T10:08:53.851Z,23.3
2022-07-26T10:14:00.071Z,23.4
2022-07-26T10:19:06.271Z,23.4
2022-07-26T10:24:11.805Z,23.4
2022-07-26T10:29:17.747Z,23.4
2022-07-26T10:34:23.902Z,23.4
2022-07-26T10:39:30.105Z,23.5
2022-07-26T10:44:36.316Z,23.7
2022-07-26T10:49:41.552Z,24.1
2022-07-26T10:54:47.759Z,24.3
2022-07-26T10:59:56.249Z,24.4
2022-07-26T11:05:00.171Z,24.5
2022-07-26T11:10:06.379Z,24.7
2022-07-26T11:15:12.593Z,25.0
2022-07-26T11:20:18.794Z,25.2
2022-07-26T11:25:24.998Z,25.0
2022-07-26T11:30:31.214Z,24.8
2022-07-26T11:35:37.421Z,24.3
2022-07-26T11:40:43.647Z,23.9
2022-07-26T11:45:49.914Z,23.5
2022-07-26T11:50:56.051Z,23.1
2022-07-26T11:56:02.255Z,22.9
2022-07-26T12:01:08.462Z,22.8
2022-07-26T12:06:14.683Z,22.7
2022-07-26T12:11:20.883Z,22.5
2022-07-26T12:16:27.168Z,22.4
2022-07-26T12:21:33.298Z,22.3
2022-07-26T12:26:39.509Z,22.2
2022-07-26T12:31:45.717Z,22.1
2022-07-26T12:36:51.931Z,22.1
2022-07-26T12:41:58.143Z,22.0
2022-07-26T12:47:04.345Z,22.1
2022-07-26T12:52:10.551Z,22.1
2022-07-26T12:57:16.762Z,22.2
2022-07-26T13:02:22.968Z,22.2
2022-07-26T13:07:29.183Z,22.3
2022-07-26T13:12:35.389Z,22.3
2022-07-26T13:17:41.593Z,22.4
2022-07-26T13:22:47.804Z,22.5
2022-07-26T13:27:54.014Z,22.7
2022-07-26T13:33:00.234Z,22.7
2022-07-26T13:38:06.438Z,22.7
2022-07-26T13:43:12.644Z,22.5
2022-07-26T13:48:18.854Z,22.3
2022-07-26T13:53:25.061Z,22.2
2022-07-26T13:58:31.264Z,22.1
2022-07-26T14:03:37.484Z,22.1
2022-07-26T14:08:43.686Z,22.1
2022-07-26T14:13:49.896Z,22.3
2022-07-26T14:18:56.097Z,22.3
2022-07-26T14:24:02.321Z,22.4
2022-07-26T14:29:08.520Z,22.4
2022-07-26T14:34:14.966Z,22.4
2022-07-26T14:39:20.948Z,22.4
2022-07-26T14:44:27.148Z,22.4
2022-07-26T14:49:33.433Z,22.4
2022-07-26T14:54:39.566Z,22.4
2022-07-26T14:59:45.770Z,22.3
2022-07-26T15:04:51.976Z,22.3
2022-07-26T15:09:58.188Z,22.3
2022-07-26T15:15:04.397Z,22.4
2022-07-26T15:20:10.608Z,22.4
2022-07-26T15:25:16.817Z,22.4
2022-07-26T15:30:23.921Z,22.5
2022-07-26T15:35:29.239Z,22.6
2022-07-26T15:40:35.458Z,22.6
2022-07-26T15:45:41.703Z,22.7
2022-07-26T15:50:47.874Z,22.8
2022-07-26T15:55:54.073Z,22.8
2022-07-26T16:01:00.383Z,22.8
2022-07-26T16:06:06.484Z,22.7
2022-07-26T16:11:12.693Z,22.7
2022-07-26T16:16:18.982Z,22.7
2022-07-26T16:21:24.128Z,22.7
2022-07-26T16:26:30.328Z,22.7
2022-07-26T16:31:36.654Z,22.7
2022-07-26T16:36:42.753Z,22.7
2022-07-26T16:41:48.959Z,22.6
2022-07-26T16:46:55.222Z,22.6
2022-07-26T16:52:01.381Z,22.5
2022-07-26T16:57:07.594Z,22.5
2022-07-26T17:02:13.916Z,22.5
2022-07-26T17:07:25.522Z,22.6
2022-07-26T17:12:26.211Z,22.6
2022-07-26T17:17:32.426Z,22.7
2022-07-26T17:22:38.677Z,22.7
2022-07-26T17:27:44.839Z,22.7
2022-07-26T17:32:51.145Z,22.5
2022-07-26T17:37:57.253Z,22.4
2022-07-26T17:43:03.466Z,22.2
2022-07-26T17:48:09.673Z,22.1
2022-07-26T17:53:15.878Z,22.0
2022-07-26T17:58:22.084Z,21.8
2022-07-26T18:03:28.301Z,21.7
2022-07-26T18:08:34.521Z,21.6
2022-07-26T18:13:40.715Z,21.6
2022-07-26T18:18:46.918Z,21.5
2022-07-26T18:24:15.299Z,21.4
2022-07-26T18:28:59.357Z,21.3
2022-07-26T18:34:06.723Z,21.2
2022-07-26T18:39:12.189Z,21.1
2022-07-26T18:44:17.960Z,20.9
2022-07-26T18:49:30.779Z,20.8
2022-07-26T18:54:30.381Z,20.6
2022-07-26T18:59:36.585Z,20.5
2022-07-26T19:04:42.798Z,20.4
2022-07-26T19:09:49.006Z,20.3
2022-07-26T19:14:55.217Z,20.2
2022-07-26T19:20:01.429Z,20.1
2022-07-26T19:25:07.630Z,20.0
2022-07-26T19:30:13.845Z,19.8
2022-07-26T19:35:20.056Z,19.7
2022-07-26T19:40:26.256Z,19.6
2022-07-26T19:45:32.473Z,19.5
2022-07-26T19:50:38.702Z,19.4
2022-07-26T19:55:44.893Z,19.3
2022-07-26T20:00:51.093Z,19.2
2022-07-26T20:05:57.303Z,19.1
2022-07-26T20:11:03.507Z,19.0
2022-07-26T20:16:09.714Z,18.9
2022-07-26T20:21:15.927Z,18.8
2022-07-26T20:26:22.130Z,18.7
2022-07-26T20:31:28.370Z,18.7
2022-07-26T20:36:34.557Z,18.6
2022-07-26T20:41:40.767Z,18.5
2022-07-26T20:46:46.965Z,18.5
2022-07-26T20:51:53.179Z,18.4
2022-07-26T20:56:59.377Z,18.4
2022-07-26T21:02:05.618Z,18.3
2022-07-26T21:07:11.808Z,18.3
2022-07-26T21:12:18.001Z,18.2
2022-07-26T21:17:34.508Z,18.2
2022-07-26T21:22:30.425Z,18.2
2022-07-26T21:27:36.637Z,18.1
2022-07-26T21:32:42.839Z,18.1
2022-07-26T21:37:49.055Z,18.0
2022-07-26T21:42:55.261Z,18.0
2022-07-26T21:48:01.468Z,18.0
2022-07-26T21:53:06.687Z,18.0
2022-07-26T21:58:12.896Z,17.9
2022-07-26T22:03:19.107Z,17.9
2022-07-26T22:08:25.305Z,17.9
2022-07-26T22:13:31.527Z,17.9
2022-07-26T22:18:37.731Z,17.8
2022-07-26T22:23:43.939Z,17.7
2022-07-26T22:28:50.151Z,17.6
2022-07-26T22:33:56.352Z,17.5
2022-07-26T22:39:02.565Z,17.5
2022-07-26T22:44:08.774Z,17.4
2022-07-26T22:49:15.300Z,17.3
2022-07-26T22:54:21.186Z,17.1
2022-07-26T22:59:27.391Z,17.0
2022-07-26T23:04:33.602Z,16.9
2022-07-26T23:09:39.808Z,16.8
2022-07-26T23:14:46.014Z,16.8
2022-07-26T23:19:52.227Z,16.7
2022-07-26T23:24:58.435Z,16.6
2022-07-26T23:30:04.643Z,16.5
2022-07-26T23:35:10.857Z,16.5
2022-07-26T23:40:17.061Z,16.4
2022-07-26T23:45:23.266Z,16.3
2022-07-26T23:50:29.494Z,16.3
2022-07-26T23:55:36.201Z,16.2
